Ufimets — UFNC — position and weather

sailwx.info

Track history (hours):
 
Tides and Currents Weather Stations Pressure Air Temp Water Temp Dewpoint Dewpoint Depression Visibility Wind Speed Wind Dir Waves Ship Positions

Ufimets

Last reported at 2017-Jun-27 17:00 UTC. Time now 2017-Jun-27 17:15 UTC.
Position N 60°46' E 028°42'.

Length 82 m; draft 1.8 m.

Type: Ship. MMSI: 27343260.

Date/timePositionNaut miles runAvg speedWind from/ knotsBaromVisibWave heightAir tempDewpointWater temp
2017-Jun-27 17:00N 60°46' E 028°42'3 6.0
2017-Jun-27 16:30N 60°48' E 028°44'0 0.3
2017-Jun-27 16:01N 60°49' E 028°44'1 2.5
2017-Jun-27 15:30N 60°50' E 028°44'1 2.6
2017-Jun-27 15:00N 60°51' E 028°42'4 3.6
2017-Jun-27 14:00N 60°54' E 028°37'1 1.8
2017-Jun-27 13:30N 60°54' E 028°37'0 0.0
2017-Jun-27 13:00N 60°54' E 028°37'2 3.5
2017-Jun-27 12:30N 60°56' E 028°36'3 6.9
2017-Jun-27 12:01N 60°58' E 028°31'3 6.7
2017-Jun-27 11:30N 61°01' E 028°27'2 3.2
2017-Jun-27 11:00N 61°02' E 028°24'0 0.0
2017-Jun-27 10:30N 61°02' E 028°24'1 2.8
2017-Jun-27 10:01N 61°03' E 028°22'2 3.3
2017-Jun-27 09:30N 61°04' E 028°19'1 1.8
2017-Jun-27 09:00N 61°05' E 028°18'1 2.3
2017-Jun-27 08:31N 61°06' E 028°19'4 7.5
2017-Jun-27 08:01N 61°09' E 028°21'4 7.3
2017-Jun-27 07:30N 61°10' E 028°29'4 7.7
2017-Jun-27 07:01N 61°11' E 028°36'4 7.5
2017-Jun-27 06:30N 61°14' E 028°42'3 6.7
2017-Jun-27 06:01N 61°14' E 028°49'0 0.9
2017-Jun-27 05:30N 61°14' E 028°49'0 0.0
2017-Jun-27 05:00N 61°14' E 028°49'0 0.0
2017-Jun-27 04:30N 61°14' E 028°49'0 0.0
2017-Jun-27 04:00N 61°14' E 028°49'0 0.0
2017-Jun-27 03:30N 61°14' E 028°49'0 0.0
2017-Jun-27 03:00N 61°14' E 028°49'0 0.0
2017-Jun-27 02:30N 61°14' E 028°49'0 0.0
2017-Jun-27 02:00N 61°14' E 028°49'0 0.0
2017-Jun-27 01:30N 61°14' E 028°49'0 0.0
2017-Jun-27 01:00N 61°14' E 028°49'0 0.0
2017-Jun-27 00:30N 61°14' E 028°49'0 0.0
2017-Jun-27 00:00N 61°14' E 028°49'0 0.0
2017-Jun-26 23:30N 61°14' E 028°49'0 0.0
2017-Jun-26 23:00N 61°14' E 028°49'0 0.0
2017-Jun-26 22:30N 61°14' E 028°49'0 0.0
2017-Jun-26 22:00N 61°14' E 028°49'0 0.0
2017-Jun-26 21:30N 61°14' E 028°49'0 0.0
2017-Jun-26 21:00N 61°14' E 028°49'0 0.0
2017-Jun-26 20:30N 61°14' E 028°49'0 0.0
2017-Jun-26 20:00N 61°14' E 028°49'0 0.0
2017-Jun-26 19:30N 61°14' E 028°49'0 0.0
2017-Jun-26 19:00N 61°14' E 028°49'0 0.0
2017-Jun-26 18:30N 61°14' E 028°49'0 0.0
2017-Jun-26 18:00N 61°14' E 028°49'0 0.0
2017-Jun-26 17:30N 61°14' E 028°49'0 0.0
2017-Jun-26 17:00N 61°14' E 028°49'0 0.0
2017-Jun-26 16:30N 61°14' E 028°49'0 0.0
2017-Jun-26 16:00N 61°14' E 028°49'0 0.0
2017-Jun-26 15:30N 61°14' E 028°49'0 0.0
2017-Jun-26 15:00N 61°14' E 028°49'0 0.0
2017-Jun-26 14:30N 61°14' E 028°49'0 0.1
2017-Jun-26 13:30N 61°14' E 028°49'0 0.0
2017-Jun-26 12:54N 61°14' E 028°49'0 0.0
2017-Jun-26 12:30N 61°14' E 028°49'0 0.0
2017-Jun-26 12:00N 61°14' E 028°49'0 0.0
2017-Jun-26 11:30N 61°14' E 028°49'0 0.0
2017-Jun-26 11:00N 61°14' E 028°49'0 0.0
2017-Jun-26 10:30N 61°14' E 028°49'0 0.0
2017-Jun-26 10:00N 61°14' E 028°49'0 0.0
2017-Jun-26 09:30N 61°14' E 028°49'0 0.0
2017-Jun-26 09:00N 61°14' E 028°49'0 0.0
2017-Jun-26 08:30N 61°14' E 028°49'0 0.0
2017-Jun-26 08:00N 61°14' E 028°49'0 0.0
2017-Jun-26 07:30N 61°14' E 028°49'0 0.3
2017-Jun-26 07:01N 61°14' E 028°49'2 3.3
2017-Jun-26 06:30N 61°14' E 028°46'3 6.7
2017-Jun-26 06:00N 61°13' E 028°40'4 7.0
2017-Jun-26 05:30N 61°11' E 028°34'3 6.9
2017-Jun-26 05:00N 61°10' E 028°27'3 6.5
2017-Jun-26 04:31N 61°09' E 028°21'3 6.5
2017-Jun-26 04:01N 61°06' E 028°19'1 2.6
2017-Jun-26 03:31N 61°05' E 028°17'1 1.3
2017-Jun-26 03:00N 61°04' E 028°18'1 1.1
2017-Jun-26 02:30N 61°04' E 028°19'2 3.7
2017-Jun-26 02:01N 61°03' E 028°23'1 2.0
2017-Jun-26 01:30N 61°02' E 028°24'2 3.8
2017-Jun-26 01:00N 61°01' E 028°27'3 5.7
2017-Jun-26 00:31N 60°59' E 028°31'2 5.0
2017-Jun-26 00:01N 60°57' E 028°34'2 3.1
2017-Jun-25 23:30N 60°56' E 028°36'1 2.9
2017-Jun-25 23:00N 60°54' E 028°37'0 0.0
2017-Jun-25 22:30N 60°54' E 028°37'1 1.5
2017-Jun-25 22:00N 60°54' E 028°37'1 2.0
2017-Jun-25 21:30N 60°53' E 028°39'1 2.2
2017-Jun-25 21:00N 60°52' E 028°41'3 5.6
2017-Jun-25 20:30N 60°50' E 028°44'0 0.9
2017-Jun-25 20:01N 60°50' E 028°44'1 2.1
2017-Jun-25 19:30N 60°49' E 028°44'0 0.2
2017-Jun-25 19:00N 60°49' E 028°44'0 0.0
2017-Jun-25 18:30N 60°49' E 028°44'0 0.0
2017-Jun-25 18:00N 60°49' E 028°44'0 0.0
2017-Jun-25 17:30N 60°49' E 028°44'0 0.0
2017-Jun-25 17:00N 60°49' E 028°44'1 2.6
2017-Jun-25 16:30N 60°47' E 028°43'3 5.9
2017-Jun-25 16:00N 60°44' E 028°42'3 5.6
2017-Jun-25 15:30N 60°42' E 028°42'3 6.8
2017-Jun-25 15:00N 60°39' E 028°37'3 6.5
2017-Jun-25 14:31N 60°37' E 028°33'7 6.6
2017-Jun-25 13:31N 60°33' E 028°22'3 6.4
2017-Jun-25 13:01N 60°30' E 028°22'3 6.5
2017-Jun-25 12:31N 60°27' E 028°20'3 6.9
2017-Jun-25 12:01N 60°23' E 028°20'4 7.0
2017-Jun-25 11:31N 60°20' E 028°21'3 6.1
2017-Jun-25 11:01N 60°18' E 028°25'3 6.7
2017-Jun-25 10:31N 60°16' E 028°31'3 6.9
2017-Jun-25 10:01N 60°14' E 028°37'3 6.8
2017-Jun-25 09:31N 60°12' E 028°43'3 6.6
2017-Jun-25 09:00N 60°11' E 028°49'3 6.5
2017-Jun-25 08:30N 60°09' E 028°54'9 6.2
2017-Jun-25 07:01N 60°03' E 029°09'0 8.7
2017-Jun-25 07:00N 60°03' E 029°09'14 6.3
2017-Jun-25 04:47N 60°00' E 029°37'2 7.0
2017-Jun-25 04:30N 59°60' E 029°40'3 6.9
2017-Jun-25 04:00N 59°58' E 029°47'2 3.6
2017-Jun-25 03:30N 59°57' E 029°50'2 4.0
2017-Jun-25 03:00N 59°57' E 029°54'2 4.5
2017-Jun-25 02:30N 59°56' E 029°58'2 3.4
2017-Jun-25 02:00N 59°55' E 030°01'3 6.3
2017-Jun-25 01:30N 59°54' E 030°07'3 6.1
2017-Jun-25 01:00N 59°54' E 030°13'4 7.1
2017-Jun-25 00:30N 59°56' E 030°18'3 6.1
2017-Jun-25 00:00N 59°57' E 030°23'2 4.3
2017-Jun-24 23:30N 59°55' E 030°24'0 0.3
2017-Jun-24 23:00N 59°55' E 030°24'0 0.0
2017-Jun-24 22:21N 59°55' E 030°24'0 0.0
2017-Jun-24 22:00N 59°55' E 030°24'0 0.0
2017-Jun-24 21:21N 59°55' E 030°24'0 0.0
2017-Jun-24 21:00N 59°55' E 030°24'0 0.0
2017-Jun-24 20:30N 59°55' E 030°24'0 0.0
2017-Jun-24 19:37N 59°55' E 030°24'0 0.0
2017-Jun-24 19:28N 59°55' E 030°24'0 0.0
2017-Jun-24 19:00N 59°55' E 030°24'0 0.0
2017-Jun-24 18:30N 59°55' E 030°24'0 0.0
2017-Jun-24 17:57N 59°55' E 030°24'0 0.0
2017-Jun-24 14:00N 59°55' E 030°24'0 0.1
2017-Jun-24 13:30N 59°55' E 030°24'0 0.1
2017-Jun-24 13:00N 59°55' E 030°24'1 1.7
2017-Jun-24 12:29N 59°55' E 030°25'6 8.4
2017-Jun-24 11:46N 59°50' E 030°33'2 7.3
2017-Jun-24 11:30N 59°49' E 030°36'  
2017-Jun-18 02:31N 61°42' E 030°57'0 7.9
2017-Jun-18 02:30N 61°42' E 030°57'1 1.6
2017-Jun-18 01:56N 61°42' E 030°59'0 0.0
2017-Jun-18 01:30N 61°42' E 030°59'0 0.0
2017-Jun-18 01:00N 61°42' E 030°59'0 0.0
2017-Jun-18 00:30N 61°42' E 030°59'0 0.0
2017-Jun-18 00:01N 61°42' E 030°59'0 0.0
2017-Jun-17 23:30N 61°42' E 030°59'  
Track history (hours):
 
Tides and Currents Weather Stations Pressure Air Temp Water Temp Dewpoint Dewpoint Depression Visibility Wind Speed Wind Dir Waves Ship Positions

Ufimets

Last reported at 2017-Jun-27 17:00 UTC. Time now 2017-Jun-27 17:15 UTC.
Position N 60°46' E 028°42'.

Length 82 m; draft 1.8 m.

Type: Ship. MMSI: 27343260.

Date/timePositionNaut miles runAvg speedWind from/ knotsBaromVisibWave heightAir tempDewpointWater temp
2017-Jun-27 17:00N 60°46' E 028°42'3 6.0
2017-Jun-27 16:30N 60°48' E 028°44'0 0.3
2017-Jun-27 16:01N 60°49' E 028°44'1 2.5
2017-Jun-27 15:30N 60°50' E 028°44'1 2.6
2017-Jun-27 15:00N 60°51' E 028°42'4 3.6
2017-Jun-27 14:00N 60°54' E 028°37'1 1.8
2017-Jun-27 13:30N 60°54' E 028°37'0 0.0
2017-Jun-27 13:00N 60°54' E 028°37'2 3.5
2017-Jun-27 12:30N 60°56' E 028°36'3 6.9
2017-Jun-27 12:01N 60°58' E 028°31'3 6.7
2017-Jun-27 11:30N 61°01' E 028°27'2 3.2
2017-Jun-27 11:00N 61°02' E 028°24'0 0.0
2017-Jun-27 10:30N 61°02' E 028°24'1 2.8
2017-Jun-27 10:01N 61°03' E 028°22'2 3.3
2017-Jun-27 09:30N 61°04' E 028°19'1 1.8
2017-Jun-27 09:00N 61°05' E 028°18'1 2.3
2017-Jun-27 08:31N 61°06' E 028°19'4 7.5
2017-Jun-27 08:01N 61°09' E 028°21'4 7.3
2017-Jun-27 07:30N 61°10' E 028°29'4 7.7
2017-Jun-27 07:01N 61°11' E 028°36'4 7.5
2017-Jun-27 06:30N 61°14' E 028°42'3 6.7
2017-Jun-27 06:01N 61°14' E 028°49'0 0.9
2017-Jun-27 05:30N 61°14' E 028°49'0 0.0
2017-Jun-27 05:00N 61°14' E 028°49'0 0.0
2017-Jun-27 04:30N 61°14' E 028°49'0 0.0
2017-Jun-27 04:00N 61°14' E 028°49'0 0.0
2017-Jun-27 03:30N 61°14' E 028°49'0 0.0
2017-Jun-27 03:00N 61°14' E 028°49'0 0.0
2017-Jun-27 02:30N 61°14' E 028°49'0 0.0
2017-Jun-27 02:00N 61°14' E 028°49'0 0.0
2017-Jun-27 01:30N 61°14' E 028°49'0 0.0
2017-Jun-27 01:00N 61°14' E 028°49'0 0.0
2017-Jun-27 00:30N 61°14' E 028°49'0 0.0
2017-Jun-27 00:00N 61°14' E 028°49'0 0.0
2017-Jun-26 23:30N 61°14' E 028°49'0 0.0
2017-Jun-26 23:00N 61°14' E 028°49'0 0.0
2017-Jun-26 22:30N 61°14' E 028°49'0 0.0
2017-Jun-26 22:00N 61°14' E 028°49'0 0.0
2017-Jun-26 21:30N 61°14' E 028°49'0 0.0
2017-Jun-26 21:00N 61°14' E 028°49'0 0.0
2017-Jun-26 20:30N 61°14' E 028°49'0 0.0
2017-Jun-26 20:00N 61°14' E 028°49'0 0.0
2017-Jun-26 19:30N 61°14' E 028°49'0 0.0
2017-Jun-26 19:00N 61°14' E 028°49'0 0.0
2017-Jun-26 18:30N 61°14' E 028°49'0 0.0
2017-Jun-26 18:00N 61°14' E 028°49'0 0.0
2017-Jun-26 17:30N 61°14' E 028°49'0 0.0
2017-Jun-26 17:00N 61°14' E 028°49'0 0.0
2017-Jun-26 16:30N 61°14' E 028°49'0 0.0
2017-Jun-26 16:00N 61°14' E 028°49'0 0.0
2017-Jun-26 15:30N 61°14' E 028°49'0 0.0
2017-Jun-26 15:00N 61°14' E 028°49'0 0.0
2017-Jun-26 14:30N 61°14' E 028°49'0 0.1
2017-Jun-26 13:30N 61°14' E 028°49'0 0.0
2017-Jun-26 12:54N 61°14' E 028°49'0 0.0
2017-Jun-26 12:30N 61°14' E 028°49'0 0.0
2017-Jun-26 12:00N 61°14' E 028°49'0 0.0
2017-Jun-26 11:30N 61°14' E 028°49'0 0.0
2017-Jun-26 11:00N 61°14' E 028°49'0 0.0
2017-Jun-26 10:30N 61°14' E 028°49'0 0.0
2017-Jun-26 10:00N 61°14' E 028°49'0 0.0
2017-Jun-26 09:30N 61°14' E 028°49'0 0.0
2017-Jun-26 09:00N 61°14' E 028°49'0 0.0
2017-Jun-26 08:30N 61°14' E 028°49'0 0.0
2017-Jun-26 08:00N 61°14' E 028°49'0 0.0
2017-Jun-26 07:30N 61°14' E 028°49'0 0.3
2017-Jun-26 07:01N 61°14' E 028°49'2 3.3
2017-Jun-26 06:30N 61°14' E 028°46'3 6.7
2017-Jun-26 06:00N 61°13' E 028°40'4 7.0
2017-Jun-26 05:30N 61°11' E 028°34'3 6.9
2017-Jun-26 05:00N 61°10' E 028°27'3 6.5
2017-Jun-26 04:31N 61°09' E 028°21'3 6.5
2017-Jun-26 04:01N 61°06' E 028°19'1 2.6
2017-Jun-26 03:31N 61°05' E 028°17'1 1.3
2017-Jun-26 03:00N 61°04' E 028°18'1 1.1
2017-Jun-26 02:30N 61°04' E 028°19'2 3.7
2017-Jun-26 02:01N 61°03' E 028°23'1 2.0
2017-Jun-26 01:30N 61°02' E 028°24'2 3.8
2017-Jun-26 01:00N 61°01' E 028°27'3 5.7
2017-Jun-26 00:31N 60°59' E 028°31'2 5.0
2017-Jun-26 00:01N 60°57' E 028°34'2 3.1
2017-Jun-25 23:30N 60°56' E 028°36'1 2.9
2017-Jun-25 23:00N 60°54' E 028°37'0 0.0
2017-Jun-25 22:30N 60°54' E 028°37'1 1.5
2017-Jun-25 22:00N 60°54' E 028°37'1 2.0
2017-Jun-25 21:30N 60°53' E 028°39'1 2.2
2017-Jun-25 21:00N 60°52' E 028°41'3 5.6
2017-Jun-25 20:30N 60°50' E 028°44'0 0.9
2017-Jun-25 20:01N 60°50' E 028°44'1 2.1
2017-Jun-25 19:30N 60°49' E 028°44'0 0.2
2017-Jun-25 19:00N 60°49' E 028°44'0 0.0
2017-Jun-25 18:30N 60°49' E 028°44'0 0.0
2017-Jun-25 18:00N 60°49' E 028°44'0 0.0
2017-Jun-25 17:30N 60°49' E 028°44'0 0.0
2017-Jun-25 17:00N 60°49' E 028°44'1 2.6
2017-Jun-25 16:30N 60°47' E 028°43'3 5.9
2017-Jun-25 16:00N 60°44' E 028°42'3 5.6
2017-Jun-25 15:30N 60°42' E 028°42'3 6.8
2017-Jun-25 15:00N 60°39' E 028°37'3 6.5
2017-Jun-25 14:31N 60°37' E 028°33'7 6.6
2017-Jun-25 13:31N 60°33' E 028°22'3 6.4
2017-Jun-25 13:01N 60°30' E 028°22'3 6.5
2017-Jun-25 12:31N 60°27' E 028°20'3 6.9
2017-Jun-25 12:01N 60°23' E 028°20'4 7.0
2017-Jun-25 11:31N 60°20' E 028°21'3 6.1
2017-Jun-25 11:01N 60°18' E 028°25'3 6.7
2017-Jun-25 10:31N 60°16' E 028°31'3 6.9
2017-Jun-25 10:01N 60°14' E 028°37'3 6.8
2017-Jun-25 09:31N 60°12' E 028°43'3 6.6
2017-Jun-25 09:00N 60°11' E 028°49'3 6.5
2017-Jun-25 08:30N 60°09' E 028°54'9 6.2
2017-Jun-25 07:01N 60°03' E 029°09'0 8.7
2017-Jun-25 07:00N 60°03' E 029°09'14 6.3
2017-Jun-25 04:47N 60°00' E 029°37'2 7.0
2017-Jun-25 04:30N 59°60' E 029°40'3 6.9
2017-Jun-25 04:00N 59°58' E 029°47'2 3.6
2017-Jun-25 03:30N 59°57' E 029°50'2 4.0
2017-Jun-25 03:00N 59°57' E 029°54'2 4.5
2017-Jun-25 02:30N 59°56' E 029°58'2 3.4
2017-Jun-25 02:00N 59°55' E 030°01'3 6.3
2017-Jun-25 01:30N 59°54' E 030°07'3 6.1
2017-Jun-25 01:00N 59°54' E 030°13'4 7.1
2017-Jun-25 00:30N 59°56' E 030°18'3 6.1
2017-Jun-25 00:00N 59°57' E 030°23'2 4.3
2017-Jun-24 23:30N 59°55' E 030°24'0 0.3
2017-Jun-24 23:00N 59°55' E 030°24'0 0.0
2017-Jun-24 22:21N 59°55' E 030°24'0 0.0
2017-Jun-24 22:00N 59°55' E 030°24'0 0.0
2017-Jun-24 21:21N 59°55' E 030°24'0 0.0
2017-Jun-24 21:00N 59°55' E 030°24'0 0.0
2017-Jun-24 20:30N 59°55' E 030°24'0 0.0
2017-Jun-24 19:37N 59°55' E 030°24'0 0.0
2017-Jun-24 19:28N 59°55' E 030°24'0 0.0
2017-Jun-24 19:00N 59°55' E 030°24'0 0.0
2017-Jun-24 18:30N 59°55' E 030°24'0 0.0
2017-Jun-24 17:57N 59°55' E 030°24'0 0.0
2017-Jun-24 14:00N 59°55' E 030°24'0 0.1
2017-Jun-24 13:30N 59°55' E 030°24'0 0.1
2017-Jun-24 13:00N 59°55' E 030°24'1 1.7
2017-Jun-24 12:29N 59°55' E 030°25'6 8.4
2017-Jun-24 11:46N 59°50' E 030°33'2 7.3
2017-Jun-24 11:30N 59°49' E 030°36'  
2017-Jun-18 02:31N 61°42' E 030°57'0 7.9
2017-Jun-18 02:30N 61°42' E 030°57'1 1.6
2017-Jun-18 01:56N 61°42' E 030°59'0 0.0
2017-Jun-18 01:30N 61°42' E 030°59'0 0.0
2017-Jun-18 01:00N 61°42' E 030°59'0 0.0
2017-Jun-18 00:30N 61°42' E 030°59'0 0.0
2017-Jun-18 00:01N 61°42' E 030°59'0 0.0
2017-Jun-17 23:30N 61°42' E 030°59'  

Dump ship's entire track history